Terminal Aerodrome Forecast
Issued by NWS Pittsburgh, PA

Current Version | Previous Version | Graphics & Text | Print | Product List | Glossary On
Versions: 1 2 3 4 5 6 7 8 9 10 11 12 13 14 15 16 17 18 19 20 21 22 23 24 25 26 27 28 29 30 31 32 33 34
000
FTUS41 KPBZ 220539
TAFPIT
TAF
KPIT 220539Z 2206/2312 21005KT P6SM FEW008 SCT015
     FM220800 00000KT 2SM BR BKN015
     FM221300 19007KT P6SM -SHRA OVC035
     FM221800 22006KT P6SM BKN035=

USA.gov is the U.S. government's official web portal to all federal, state and local government web resources and services.